Billings, MT

12:11 AM MDT on September 17, 2014 (GMT -0600)
Billings Logan International | Change Station
CLOSE
Current Station
Airport
Location: Billings,
Elevation: 3570 ft
Nearby Weather Stations

Elev 3570 ft 45.81 °N, 108.54 °W | Updated 18 minutes ago

Overcast
Overcast
68 °F
Feels Like 68 °F
N
8
Wind Variable Wind from SW

Today
High -- | Low -- °F
--% Chance of Precip.
Yesterday
High -- | Low -- °F
Precip. -- in
6:54 AM 7:21 PM
Last Quarter, 39% visible
Pressure 29.84 in
Visibility 10.0 miles
Clouds Few 15000 ft
Few 22000 ft
Dew Point 42 °F
Humidity 39%
Rainfall 0.00 in
Snow Depth Not available.
UV 0 out of 12
Pollen 6.30 out of 12
Air Quality Not available.
Flu Activity Not available.
METAR KBIL 170553Z 22007KT 10SM FEW150 FEW220 20/06 A2993 RMK AO2 SLP105 T02000056 10278 20178 58001

More Conditions Fewer Conditions

Pressure 29.84 in
Visibility 10.0 miles
Clouds Few 15000 ft
Few 22000 ft
Dew Point 42 °F
Humidity 39%
Rainfall 0.00 in
Snow Depth Not available.
UV 0 out of 12
Pollen 6.30 out of 12
Air Quality Not available.
Flu Activity Not available.
METAR KBIL 170553Z 22007KT 10SM FEW150 FEW220 20/06 A2993 RMK AO2 SLP105 T02000056 10278 20178 58001

More Conditions Fewer Conditions

10-Day Weather Forecast

Almanac

Astronomy

Sep. 17, 2014 Rise Set
Actual Time 6:54 AM MDT 7:21 PM MDT
Civil Twilight 6:24 AM MDT 7:50 PM MDT
Nautical Twilight 5:49 AM MDT 8:26 PM MDT
Astronomical Twilight 5:13 AM MDT 9:02 PM MDT
Moon 12:44 AM MDT 3:45 PM MDT
Length of Visible Light 13h 25m
Length of Day
12h 26m
Tomorrow will be 3m 11s shorter.
Last Quarter, 39% of the Moon is Illuminated
Today
Last Quarter
Sep 24
New
Oct 1
First Quarter
Oct 8
Full
Oct 15
Last Quarter

Today's Extremes

State Highs State Lows

Community

WunderPhotos

Upload Photos

1,753,970 photos uploaded!

Nearby

Snow Depth

Station Depth Elevation
Brackett Creek 0 in 7320 ft
Daisy Peak 0 in 7600 ft
Stuart Mountain 0 in 7400 ft
Short Creek 0 in 7000 ft
Badger Pass 0 in 6900 ft

Earthquake Activity

City Distance Mag. Time & Date
No recent earthquake activity has been reported nearby.
Minimum magnitude displayed is 2.5.

Coastal Water Temperatures

Place Temperature
No Stations Reporting

Nearby Weather Stations